Kezdőlap
METAR-TAF:

METAR-TAF

Repülőterek :

Langkawi, Malajzia

földrajzi szélesség: 06-20N, földrajzi hosszúság: 099-44E, magasság: 8 m

Jelenlegi meteorológiai megfigyelések

A jelentés 1 órával és 16 perccel ezelõtt készült, 19:00 UTC
Szélcsend
Hőmérséklet 28°C
Páratartalom 89%
Légköri nyomás 1008 hPa
Látótávolság 10 km, vagy több
Kevés felhő 1700 lábon, Cumulonimbus.

METAR: WMKL 151900Z 00000KT 9999 FEW017CB 28/26 Q1008

Idő: 04:16 (20:16 UTC)

Előrejelzés

A jelentés 3 órával és 16 perccel ezelõtt készült, 17:00 UTC
Az előrejelzés 15-én 18 óra UTC és 16-én 18 óra UTC között érvényes
Különbözõ irányokból fújó szél 2 kt
Látótávolság 10 km, vagy több
Kevés felhő 2600 lábon
15-én 20 óra UTC és 16-én 00 óra UTC között ideiglenes
Látótávolság: 5000 m
Kevés felhő 1000 lábon
Kevés felhő 1700 lábon, Cumulonimbus.
zivatar, esõ,

TAF: WMKL 151700Z 1518/1618 VRB02KT 9999 FEW026 TEMPO 1520/1600 5000 TSRA FEW010 FEW017CB

Meteorológiai megfigyelések és előrejelzések több, mint 4000 repülőtéren (METAR és TAF jelentéseket).

A térképen piros és sárga pontok jelzik az elérhető meteorológiai állomásokat.

Mozgassa az egeret a pont fölött, hogy megjelenjen az állomás neve.

Azután kattintson az időjárási megfigyelések és előrejelzések megtekintéséhez.

A térkép megváltoztatása: kattintson a fekete keresztel jelölt zöld gombra ráközelítéshez, a vonallal jelölt zöld gombra távolításhoz, vagy a zöld nyilakra a szomszédos térképek eléréséhez.


METAR-TAF: